createdAt,value
2022-10-23T04:01:28.615Z,4.40
2022-10-23T04:05:42.326Z,4.03
2022-10-23T04:09:53.871Z,3.90
2022-10-23T04:14:05.432Z,3.97
2022-10-23T04:18:17.963Z,4.82
2022-10-23T04:22:29.560Z,3.85
2022-10-23T04:26:41.100Z,4.20
2022-10-23T04:30:55.295Z,3.80
2022-10-23T04:35:07.652Z,4.22
2022-10-23T04:39:19.228Z,3.20
2022-10-23T04:43:31.781Z,3.67
2022-10-23T04:47:43.471Z,3.20
2022-10-23T04:51:55.001Z,3.30
2022-10-23T04:56:15.884Z,3.42
2022-10-23T05:00:34.457Z,3.63
2022-10-23T05:04:48.339Z,3.17
2022-10-23T05:09:35.979Z,2.90
2022-10-23T05:14:05.417Z,3.38
2022-10-23T05:18:46.191Z,3.30
2022-10-23T05:23:00.494Z,3.00
2022-10-23T05:27:12.835Z,3.20
2022-10-23T05:31:26.144Z,3.13
2022-10-23T05:35:46.936Z,3.05
2022-10-23T05:40:00.938Z,3.22
2022-10-23T05:44:12.520Z,3.33
2022-10-23T05:48:40.511Z,3.80
2022-10-23T05:53:11.469Z,2.97
2022-10-23T05:57:34.913Z,3.35
2022-10-23T06:01:50.880Z,3.20
2022-10-23T06:06:13.972Z,3.70
2022-10-23T06:10:31.942Z,3.47
2022-10-23T06:14:47.249Z,2.88
2022-10-23T06:18:59.698Z,3.45
2022-10-23T06:23:11.903Z,3.45
2022-10-23T06:27:52.804Z,3.35
2022-10-23T06:32:04.633Z,3.15
2022-10-23T06:36:16.175Z,2.97
2022-10-23T06:40:28.432Z,3.72
2022-10-23T06:44:44.258Z,3.92
2022-10-23T06:48:56.612Z,3.55
2022-10-23T06:53:12.346Z,2.95
2022-10-23T06:57:29.684Z,3.20
2022-10-23T07:01:41.526Z,3.17
2022-10-23T07:05:55.252Z,3.03
2022-10-23T07:10:07.276Z,3.13
2022-10-23T07:14:27.346Z,3.17
2022-10-23T07:18:39.685Z,3.70
2022-10-23T07:23:11.802Z,3.17
2022-10-23T07:27:25.723Z,3.38
2022-10-23T07:31:42.181Z,3.55
2022-10-23T07:36:10.002Z,3.63
2022-10-23T07:40:21.815Z,3.50
2022-10-23T07:44:36.184Z,3.65
2022-10-23T07:48:48.080Z,3.22
2022-10-23T07:53:01.327Z,3.80
2022-10-23T07:57:23.756Z,3.55
2022-10-23T08:01:42.902Z,3.42
2022-10-23T08:05:56.176Z,3.35
2022-10-23T08:10:08.246Z,3.40
2022-10-23T08:14:22.373Z,3.65
2022-10-23T08:18:34.805Z,3.25
2022-10-23T08:22:46.519Z,3.38
2022-10-23T08:27:03.690Z,3.40
2022-10-23T08:31:19.370Z,4.05
2022-10-23T08:35:50.968Z,4.20
2022-10-23T08:40:36.563Z,3.50
2022-10-23T08:45:34.889Z,4.25
2022-10-23T08:49:59.957Z,3.90
2022-10-23T08:54:20.416Z,4.40
2022-10-23T09:03:05.487Z,4.28
2022-10-23T09:07:35.201Z,4.15
2022-10-23T09:12:11.468Z,3.70
2022-10-23T09:16:25.768Z,4.25
2022-10-23T09:20:37.390Z,4.25
2022-10-23T09:24:53.604Z,4.30
2022-10-23T09:29:22.798Z,5.47
2022-10-23T09:33:37.044Z,4.05
2022-10-23T09:37:52.987Z,3.70
2022-10-23T09:42:22.302Z,3.88
2022-10-23T09:46:47.132Z,3.47
2022-10-23T09:51:04.244Z,4.10
2022-10-23T09:55:23.031Z,3.78
2022-10-23T09:59:34.714Z,3.40
2022-10-23T10:03:51.129Z,3.70
2022-10-23T10:08:08.989Z,3.63
2022-10-23T10:12:37.753Z,3.88
2022-10-23T10:17:00.855Z,4.10
2022-10-23T10:21:28.485Z,3.13
2022-10-23T10:25:58.588Z,2.90
2022-10-23T10:30:20.834Z,3.20
2022-10-23T10:34:54.475Z,3.03
2022-10-23T10:39:17.663Z,2.85
2022-10-23T10:43:51.947Z,3.13
2022-10-23T10:48:10.961Z,2.40
2022-10-23T10:53:20.708Z,2.13
2022-10-23T10:57:38.252Z,2.20
2022-10-23T11:02:26.984Z,1.55
2022-10-23T11:06:41.359Z,2.05
2022-10-23T11:10:59.037Z,1.65
2022-10-23T11:15:39.953Z,1.80
2022-10-23T11:19:59.925Z,1.60
2022-10-23T11:24:26.213Z,1.77
2022-10-23T11:28:43.612Z,1.50
2022-10-23T11:33:23.756Z,1.45
2022-10-23T11:37:35.299Z,1.30
2022-10-23T11:41:55.093Z,1.55
2022-10-23T11:46:21.995Z,1.65
2022-10-23T11:50:51.177Z,1.27
2022-10-23T11:55:18.019Z,1.60
2022-10-23T11:59:32.709Z,1.40
2022-10-23T12:03:57.922Z,1.70
2022-10-23T12:08:27.712Z,1.55
2022-10-23T12:12:40.989Z,1.80
2022-10-23T12:16:52.671Z,1.63
2022-10-23T12:21:04.619Z,2.00
2022-10-23T12:25:38.582Z,1.50
2022-10-23T12:29:54.704Z,1.80
2022-10-23T12:34:18.580Z,1.50
2022-10-23T12:38:33.971Z,1.65
2022-10-23T12:42:54.425Z,1.63
2022-10-23T12:47:06.012Z,1.67
2022-10-23T12:51:24.855Z,1.42
2022-10-23T12:55:54.093Z,1.90
2022-10-23T13:00:12.962Z,1.90
2022-10-23T13:04:34.369Z,2.22
2022-10-23T13:08:47.792Z,2.42
2022-10-23T13:13:23.139Z,2.47
2022-10-23T13:18:01.219Z,2.78
2022-10-23T13:22:22.653Z,3.05
2022-10-23T13:26:45.584Z,2.60
2022-10-23T13:31:01.856Z,2.75
2022-10-23T13:35:23.345Z,3.50
2022-10-23T13:39:35.017Z,3.45
2022-10-23T13:43:48.359Z,3.15
2022-10-23T13:47:59.890Z,2.53
2022-10-23T13:52:14.353Z,3.00
2022-10-23T13:56:27.460Z,2.75
2022-10-23T14:00:40.069Z,2.92
2022-10-23T14:04:51.686Z,3.42
2022-10-23T14:09:05.389Z,3.17
2022-10-23T14:13:16.911Z,2.78
2022-10-23T14:17:28.453Z,3.03
2022-10-23T14:21:40.002Z,3.20
2022-10-23T14:25:51.524Z,3.58
2022-10-23T14:30:03.931Z,2.78
2022-10-23T14:34:15.494Z,3.45
2022-10-23T14:38:27.668Z,3.30
2022-10-23T14:42:39.253Z,3.20
2022-10-23T14:46:50.886Z,3.10
2022-10-23T14:51:02.433Z,3.47
2022-10-23T14:55:14.123Z,3.38
2022-10-23T14:59:25.808Z,3.40
2022-10-23T15:03:37.318Z,4.22
2022-10-23T15:07:48.828Z,2.97
2022-10-23T15:12:00.578Z,3.13
2022-10-23T15:16:12.321Z,3.05
2022-10-23T15:20:23.920Z,3.15
2022-10-23T15:24:35.522Z,2.78
2022-10-23T15:28:48.158Z,2.90
2022-10-23T15:32:59.721Z,3.17
2022-10-23T15:37:11.519Z,2.92
2022-10-23T15:41:31.642Z,2.70
2022-10-23T15:45:43.191Z,3.55
2022-10-23T15:49:54.735Z,2.60
2022-10-23T15:54:08.452Z,3.08
2022-10-23T15:58:19.948Z,4.00
2022-10-23T16:02:31.653Z,3.38
2022-10-23T16:06:46.381Z,3.28
2022-10-23T16:10:59.583Z,2.65
2022-10-23T16:15:11.073Z,2.92
2022-10-23T16:19:22.680Z,2.88
2022-10-23T16:23:34.461Z,3.05
2022-10-23T16:27:46.446Z,2.67
2022-10-23T16:31:59.767Z,3.90
2022-10-23T16:36:11.324Z,3.92
2022-10-23T16:41:03.690Z,4.32
2022-10-23T16:45:30.145Z,5.60
2022-10-23T16:49:43.764Z,6.15
2022-10-23T16:53:55.422Z,5.90
2022-10-23T16:58:06.956Z,5.93
2022-10-23T17:02:18.536Z,6.10
2022-10-23T17:06:32.689Z,5.80
2022-10-23T17:10:44.183Z,7.03
2022-10-23T17:14:55.708Z,6.30
2022-10-23T17:19:21.034Z,5.53
2022-10-23T17:23:41.642Z,6.30
2022-10-23T17:27:53.134Z,5.10
2022-10-23T17:32:04.942Z,5.43
2022-10-23T17:36:16.502Z,6.10
2022-10-23T17:40:30.874Z,7.88
2022-10-23T17:44:42.609Z,7.22
2022-10-23T17:48:57.148Z,5.65
2022-10-23T17:53:08.732Z,4.70
2022-10-23T17:57:20.312Z,5.10
2022-10-23T18:01:32.358Z,5.18
2022-10-23T18:05:44.058Z,4.53
2022-10-23T18:09:55.591Z,4.78
2022-10-23T18:14:07.541Z,5.10
2022-10-23T18:18:19.068Z,5.13
2022-10-23T18:22:33.044Z,5.00
2022-10-23T18:26:45.106Z,5.18
2022-10-23T18:30:57.197Z,5.43
2022-10-23T18:35:09.124Z,4.78
2022-10-23T18:39:23.686Z,4.80
2022-10-23T18:43:44.091Z,6.82
2022-10-23T18:47:55.990Z,5.65
2022-10-23T18:52:07.518Z,4.88
2022-10-23T18:56:22.843Z,5.38
2022-10-23T19:00:34.472Z,4.82
2022-10-23T19:04:46.202Z,5.78
2022-10-23T19:08:58.011Z,5.22
2022-10-23T19:13:09.655Z,4.95
2022-10-23T19:17:25.784Z,4.35
2022-10-23T19:21:38.787Z,5.20
2022-10-23T19:25:51.486Z,4.32
2022-10-23T19:30:06.362Z,4.60
2022-10-23T19:34:20.437Z,4.55
2022-10-23T19:38:32.786Z,4.20
2022-10-23T19:42:44.636Z,4.72
2022-10-23T19:46:56.299Z,3.38
2022-10-23T19:51:08.470Z,3.67
2022-10-23T19:55:20.140Z,4.15
2022-10-23T19:59:31.685Z,3.95
2022-10-23T20:03:45.482Z,3.90
2022-10-23T20:07:57.501Z,3.63
2022-10-23T20:12:09.034Z,4.03
2022-10-23T20:16:29.895Z,4.18
2022-10-23T20:20:42.364Z,4.03
2022-10-23T20:24:53.923Z,3.70
2022-10-23T20:29:05.594Z,4.50
2022-10-23T20:33:17.097Z,3.90
2022-10-23T20:37:28.598Z,3.58
2022-10-23T20:41:41.871Z,3.50
2022-10-23T20:45:53.368Z,3.97
2022-10-23T20:50:05.230Z,3.60
2022-10-23T20:54:16.745Z,3.42
2022-10-23T20:58:28.245Z,3.25
2022-10-23T21:02:39.832Z,3.63
2022-10-23T21:07:08.829Z,3.13
2022-10-23T21:11:20.738Z,3.13
2022-10-23T21:15:32.236Z,3.42
2022-10-23T21:19:43.875Z,3.80
2022-10-23T21:23:59.364Z,3.40
2022-10-23T21:28:11.053Z,3.38
